createdAt,value
2022-09-12T00:00:12.162Z,6.70
2022-09-12T00:00:24.202Z,6.47
2022-09-12T00:00:36.114Z,6.65
2022-09-12T00:00:48.079Z,6.60
2022-09-12T00:01:09.277Z,6.68
2022-09-12T00:01:25.446Z,6.78
2022-09-12T00:01:37.465Z,6.85
2022-09-12T00:01:49.483Z,6.97
2022-09-12T00:02:01.456Z,7.20
2022-09-12T00:02:13.482Z,7.13
2022-09-12T00:02:25.587Z,7.18
2022-09-12T00:02:37.562Z,7.15
2022-09-12T00:02:53.900Z,7.10
2022-09-12T00:03:05.817Z,7.03
2022-09-12T00:03:17.724Z,7.28
2022-09-12T00:03:29.629Z,7.40
2022-09-12T00:03:42.287Z,7.25
2022-09-12T00:03:56.648Z,7.00
2022-09-12T00:04:10.941Z,7.07
2022-09-12T00:04:23.130Z,7.32
2022-09-12T00:04:35.128Z,7.22
2022-09-12T00:04:47.201Z,7.30
2022-09-12T00:05:00.221Z,7.28
2022-09-12T00:05:12.684Z,7.20
2022-09-12T00:05:28.520Z,7.00
2022-09-12T00:05:42.431Z,6.88
2022-09-12T00:05:54.319Z,6.80
2022-09-12T00:06:30.603Z,6.82
2022-09-12T00:06:42.595Z,6.72
2022-09-12T00:06:54.521Z,7.00
2022-09-12T00:07:06.469Z,7.20
2022-09-12T00:07:18.360Z,7.10
2022-09-12T00:07:30.277Z,6.75
2022-09-12T00:07:42.196Z,6.80
2022-09-12T00:07:54.244Z,6.93
2022-09-12T00:08:06.172Z,7.25
2022-09-12T00:08:18.070Z,7.03
2022-09-12T00:08:29.945Z,6.90
2022-09-12T00:08:41.887Z,7.00
2022-09-12T00:08:55.209Z,6.78
2022-09-12T00:09:10.863Z,6.65
2022-09-12T00:09:22.772Z,6.90
2022-09-12T00:09:34.656Z,6.40
2022-09-12T00:09:46.602Z,6.32
2022-09-12T00:09:58.521Z,6.18
2022-09-12T00:10:10.431Z,6.30
2022-09-12T00:10:22.525Z,5.93
2022-09-12T00:10:39.004Z,6.07
2022-09-12T00:10:50.921Z,6.60
2022-09-12T00:11:07.984Z,6.90
2022-09-12T00:11:19.998Z,6.50
2022-09-12T00:11:32.048Z,6.43
2022-09-12T00:11:45.986Z,6.78
2022-09-12T00:11:57.865Z,7.22
2022-09-12T00:12:09.771Z,7.55
2022-09-12T00:12:21.660Z,7.35
2022-09-12T00:12:33.602Z,6.78
2022-09-12T00:12:45.688Z,6.57
2022-09-12T00:12:57.602Z,6.47
2022-09-12T00:13:10.672Z,6.28
2022-09-12T00:13:22.627Z,6.65
2022-09-12T00:13:38.390Z,6.93
2022-09-12T00:14:00.433Z,7.10
2022-09-12T00:14:15.778Z,7.28
2022-09-12T00:14:27.676Z,7.20
2022-09-12T00:14:39.596Z,6.82
2022-09-12T00:14:51.535Z,6.95
2022-09-12T00:15:04.182Z,7.07
2022-09-12T00:15:16.064Z,7.15
2022-09-12T00:15:27.974Z,7.28
2022-09-12T00:15:41.381Z,7.40
2022-09-12T00:15:53.272Z,7.13
2022-09-12T00:16:05.673Z,7.20
2022-09-12T00:16:25.205Z,7.18
2022-09-12T00:16:37.979Z,7.30
2022-09-12T00:16:49.963Z,7.68
2022-09-12T00:17:02.382Z,7.72
2022-09-12T00:17:14.578Z,7.45
2022-09-12T00:17:26.520Z,7.28
2022-09-12T00:17:39.399Z,7.43
2022-09-12T00:17:51.323Z,7.55
2022-09-12T00:18:03.313Z,7.38
2022-09-12T00:18:17.019Z,7.68
2022-09-12T00:18:28.927Z,7.88
2022-09-12T00:18:40.810Z,8.05
2022-09-12T00:18:53.654Z,8.20
2022-09-12T00:19:06.739Z,7.85
2022-09-12T00:19:18.993Z,7.63
2022-09-12T00:19:30.863Z,7.63
2022-09-12T00:19:42.942Z,8.25
2022-09-12T00:19:55.768Z,8.43
2022-09-12T00:20:09.962Z,8.23
2022-09-12T00:20:21.886Z,8.02
2022-09-12T00:20:33.836Z,8.10
2022-09-12T00:20:47.263Z,8.00
2022-09-12T00:21:04.640Z,7.97
2022-09-12T00:21:18.447Z,8.30
2022-09-12T00:21:32.483Z,7.70
2022-09-12T00:21:44.792Z,7.18
2022-09-12T00:21:56.773Z,7.38
2022-09-12T00:22:08.742Z,7.68
2022-09-12T00:22:20.653Z,7.97
2022-09-12T00:22:32.573Z,8.05
2022-09-12T00:22:44.562Z,8.10
2022-09-12T00:22:56.532Z,8.20
2022-09-12T00:23:08.509Z,8.00
2022-09-12T00:23:20.459Z,8.05
2022-09-12T00:23:33.136Z,8.23
2022-09-12T00:23:45.670Z,8.02
2022-09-12T00:23:57.928Z,7.85
2022-09-12T00:24:11.247Z,7.57
2022-09-12T00:24:23.237Z,7.25
2022-09-12T00:24:35.157Z,7.00
2022-09-12T00:24:47.108Z,6.85
2022-09-12T00:24:59.024Z,7.07
2022-09-12T00:25:11.115Z,7.55
2022-09-12T00:25:23.039Z,8.02
2022-09-12T00:25:34.969Z,8.27
2022-09-12T00:25:48.401Z,8.25
2022-09-12T00:26:00.354Z,7.75
2022-09-12T00:26:13.143Z,7.65
2022-09-12T00:26:25.115Z,7.55
2022-09-12T00:26:37.176Z,7.70
2022-09-12T00:26:49.247Z,7.60
2022-09-12T00:27:01.157Z,7.32
2022-09-12T00:27:13.023Z,7.50
2022-09-12T00:27:24.921Z,7.40
2022-09-12T00:27:36.818Z,7.65
2022-09-12T00:27:48.716Z,7.53
2022-09-12T00:28:00.648Z,7.63
2022-09-12T00:28:14.501Z,7.68
2022-09-12T00:28:26.985Z,7.88
2022-09-12T00:28:40.807Z,7.78
2022-09-12T00:28:52.966Z,8.15
2022-09-12T00:29:04.863Z,8.25
2022-09-12T00:29:19.638Z,8.52
2022-09-12T00:29:31.663Z,8.32
2022-09-12T00:29:43.581Z,7.75
2022-09-12T00:29:55.510Z,7.88
2022-09-12T00:30:07.911Z,7.90
2022-09-12T00:30:19.806Z,8.13
2022-09-12T00:30:31.894Z,7.93
2022-09-12T00:30:48.242Z,7.63
2022-09-12T00:31:00.331Z,7.40
2022-09-12T00:31:16.148Z,7.63
2022-09-12T00:31:28.494Z,7.82
2022-09-12T00:31:40.484Z,7.88
2022-09-12T00:31:52.501Z,7.82
2022-09-12T00:32:04.736Z,7.85
2022-09-12T00:32:16.737Z,8.10
2022-09-12T00:32:28.745Z,8.45
2022-09-12T00:32:40.656Z,8.05
2022-09-12T00:32:54.646Z,7.68
2022-09-12T00:33:06.527Z,7.70
2022-09-12T00:33:18.508Z,7.95
2022-09-12T00:33:30.936Z,8.10
2022-09-12T00:33:43.639Z,8.10
2022-09-12T00:33:58.665Z,8.10
2022-09-12T00:34:11.056Z,8.43
2022-09-12T00:34:22.976Z,8.35
2022-09-12T00:34:36.052Z,8.50
2022-09-12T00:34:47.959Z,8.80
2022-09-12T00:35:00.779Z,9.02
2022-09-12T00:35:12.916Z,8.60
2022-09-12T00:35:24.794Z,8.07
2022-09-12T00:35:50.020Z,8.00
2022-09-12T00:36:15.162Z,8.10
2022-09-12T00:36:29.253Z,8.75
2022-09-12T00:36:41.405Z,8.52
2022-09-12T00:36:53.318Z,7.97
2022-09-12T00:37:05.208Z,7.95
2022-09-12T00:37:17.622Z,7.75
2022-09-12T00:37:29.606Z,7.97
2022-09-12T00:37:41.760Z,8.25
2022-09-12T00:37:53.660Z,8.57
2022-09-12T00:38:05.542Z,8.45
2022-09-12T00:38:17.476Z,8.00
2022-09-12T00:38:29.408Z,7.63
2022-09-12T00:38:42.655Z,7.72
2022-09-12T00:38:54.817Z,7.95
2022-09-12T00:39:07.732Z,8.15
2022-09-12T00:39:19.735Z,8.65
2022-09-12T00:39:31.647Z,8.80
2022-09-12T00:39:43.638Z,8.98
2022-09-12T00:39:55.558Z,8.95
2022-09-12T00:40:07.949Z,8.65
2022-09-12T00:40:19.864Z,8.43
2022-09-12T00:40:31.739Z,8.90
2022-09-12T00:40:44.668Z,8.90
2022-09-12T00:40:56.539Z,8.65
2022-09-12T00:41:16.953Z,8.52
2022-09-12T00:41:34.453Z,8.80
2022-09-12T00:41:46.507Z,8.50
2022-09-12T00:41:58.693Z,8.50
2022-09-12T00:42:12.682Z,8.68
2022-09-12T00:42:24.546Z,8.60
2022-09-12T00:42:36.411Z,8.65
2022-09-12T00:42:48.272Z,8.75
2022-09-12T00:43:00.138Z,8.77
2022-09-12T00:43:13.859Z,8.35
2022-09-12T00:43:43.592Z,8.25
2022-09-12T00:44:01.276Z,8.75
2022-09-12T00:44:13.194Z,8.73
2022-09-12T00:44:25.032Z,8.35
2022-09-12T00:44:36.899Z,8.23
2022-09-12T00:44:51.608Z,8.57
2022-09-12T00:45:03.843Z,8.65
2022-09-12T00:45:24.308Z,8.80
2022-09-12T00:45:36.283Z,9.00
2022-09-12T00:45:48.219Z,9.27
2022-09-12T00:46:04.661Z,9.25
2022-09-12T00:46:29.135Z,8.73
2022-09-12T00:46:56.728Z,8.30
2022-09-12T00:47:11.588Z,8.50
2022-09-12T00:47:34.317Z,8.57
2022-09-12T00:47:46.415Z,8.70
2022-09-12T00:48:03.549Z,8.43
2022-09-12T00:48:26.670Z,7.97
2022-09-12T00:48:43.954Z,8.38
2022-09-12T00:49:00.709Z,8.35
2022-09-12T00:49:19.545Z,8.48
2022-09-12T00:49:51.674Z,8.82
2022-09-12T00:50:13.833Z,8.27
2022-09-12T00:50:25.910Z,8.75
2022-09-12T00:50:37.798Z,8.75
2022-09-12T00:50:50.105Z,8.32
2022-09-12T00:51:02.145Z,8.00
2022-09-12T00:51:14.886Z,7.80
2022-09-12T00:51:30.412Z,8.35
2022-09-12T00:51:55.390Z,8.73
2022-09-12T00:52:09.704Z,8.80
2022-09-12T00:52:44.732Z,8.60
2022-09-12T00:53:07.032Z,8.32
2022-09-12T00:53:19.007Z,8.32
2022-09-12T00:53:31.332Z,8.95
2022-09-12T00:53:47.696Z,8.90
2022-09-12T00:54:02.632Z,8.73
2022-09-12T00:54:20.821Z,8.93
2022-09-12T00:54:39.066Z,9.18
2022-09-12T00:54:57.019Z,9.13
2022-09-12T00:55:24.286Z,9.25
2022-09-12T00:55:40.943Z,9.00
2022-09-12T00:55:53.825Z,8.85
2022-09-12T00:56:06.325Z,8.70
2022-09-12T00:56:19.755Z,8.60
2022-09-12T00:56:32.586Z,9.15
2022-09-12T00:56:46.853Z,10.00
2022-09-12T00:57:03.817Z,9.73
2022-09-12T00:57:18.067Z,9.05
2022-09-12T00:57:34.668Z,9.38
2022-09-12T00:57:49.200Z,9.23
2022-09-12T00:58:14.570Z,9.07
2022-09-12T00:58:34.451Z,8.93
2022-09-12T00:58:57.819Z,8.57
2022-09-12T00:59:15.232Z,9.23
2022-09-12T00:59:36.723Z,9.40
2022-09-12T00:59:57.524Z,9.27
2022-09-12T01:00:16.312Z,9.07
2022-09-12T01:00:29.408Z,9.05
2022-09-12T01:00:41.622Z,9.20
2022-09-12T01:00:54.011Z,9.57
2022-09-12T01:01:06.415Z,9.48
2022-09-12T01:01:19.263Z,9.30
2022-09-12T01:01:32.791Z,9.02
2022-09-12T01:01:48.417Z,8.95
2022-09-12T01:02:01.087Z,8.95
2022-09-12T01:02:13.182Z,8.85
2022-09-12T01:02:26.451Z,9.05
2022-09-12T01:02:38.523Z,9.27
2022-09-12T01:02:56.602Z,9.07
2022-09-12T01:03:14.598Z,9.05
2022-09-12T01:03:26.970Z,9.20
2022-09-12T01:03:38.939Z,9.07
2022-09-12T01:03:51.153Z,8.93
2022-09-12T01:04:03.728Z,9.10
2022-09-12T01:04:17.212Z,9.07
2022-09-12T01:04:30.398Z,8.63
2022-09-12T01:04:44.525Z,8.80
2022-09-12T01:04:56.579Z,9.18
2022-09-12T01:05:09.152Z,8.95
2022-09-12T01:05:23.616Z,8.82
2022-09-12T01:05:39.933Z,9.25
2022-09-12T01:06:14.090Z,9.33
2022-09-12T01:06:28.921Z,9.30
2022-09-12T01:06:44.959Z,8.85
2022-09-12T01:06:58.344Z,8.77
2022-09-12T01:07:11.574Z,9.40
2022-09-12T01:07:23.918Z,9.40
2022-09-12T01:07:40.009Z,9.40
2022-09-12T01:07:53.052Z,9.45
2022-09-12T01:08:06.256Z,9.52
2022-09-12T01:08:18.640Z,9.43
2022-09-12T01:08:32.208Z,9.50
2022-09-12T01:08:46.794Z,9.63
2022-09-12T01:08:59.695Z,9.55
2022-09-12T01:09:16.901Z,9.35
2022-09-12T01:09:31.631Z,9.15
2022-09-12T01:09:45.810Z,9.20
2022-09-12T01:09:57.907Z,9.32
2022-09-12T01:10:10.940Z,9.20
2022-09-12T01:10:24.280Z,9.30
2022-09-12T01:10:38.807Z,8.95
2022-09-12T01:10:50.867Z,9.07
2022-09-12T01:11:04.326Z,9.30
2022-09-12T01:11:16.733Z,8.95
2022-09-12T01:11:28.779Z,8.80
2022-09-12T01:11:41.263Z,9.02
2022-09-12T01:11:53.612Z,9.27
2022-09-12T01:12:06.097Z,9.40
2022-09-12T01:12:18.105Z,9.35
2022-09-12T01:12:31.248Z,9.63
2022-09-12T01:12:44.130Z,9.65
2022-09-12T01:12:56.048Z,9.52
2022-09-12T01:13:10.076Z,9.45
2022-09-12T01:13:22.483Z,9.02
2022-09-12T01:13:35.667Z,8.75
2022-09-12T01:13:48.528Z,9.23
2022-09-12T01:14:00.664Z,9.57
2022-09-12T01:14:13.766Z,9.40
2022-09-12T01:14:25.783Z,9.35
2022-09-12T01:14:38.803Z,9.48
2022-09-12T01:14:50.710Z,9.52
2022-09-12T01:15:02.781Z,9.47
2022-09-12T01:15:15.061Z,9.18
2022-09-12T01:15:27.103Z,9.10
2022-09-12T01:15:40.340Z,9.07
2022-09-12T01:15:52.651Z,9.00
2022-09-12T01:16:06.268Z,8.93
2022-09-12T01:16:18.387Z,8.88
2022-09-12T01:16:30.779Z,9.18
2022-09-12T01:16:43.652Z,9.48
2022-09-12T01:16:55.901Z,9.48
2022-09-12T01:17:12.005Z,9.27
2022-09-12T01:17:28.768Z,9.57
2022-09-12T01:18:07.714Z,9.38
2022-09-12T01:18:32.494Z,10.02
2022-09-12T01:18:50.319Z,9.27
2022-09-12T01:19:17.780Z,9.40
2022-09-12T01:19:31.715Z,9.25
2022-09-12T01:19:46.256Z,9.50
2022-09-12T01:20:29.351Z,9.70
2022-09-12T01:21:02.818Z,9.45
2022-09-12T01:21:25.561Z,9.38
2022-09-12T01:21:55.557Z,9.50
2022-09-12T01:22:33.703Z,9.77
2022-09-12T01:22:54.448Z,9.27
2022-09-12T01:23:33.058Z,9.55
2022-09-12T01:24:12.427Z,9.15
2022-09-12T01:24:54.404Z,8.68
2022-09-12T01:25:31.042Z,9.30
2022-09-12T01:26:19.995Z,9.48
2022-09-12T01:26:49.847Z,9.80
2022-09-12T01:27:16.583Z,9.50
2022-09-12T01:27:34.293Z,9.55
2022-09-12T01:28:01.163Z,9.20
2022-09-12T01:28:25.167Z,9.00
2022-09-12T01:28:51.958Z,10.02
2022-09-12T01:29:34.727Z,9.52
2022-09-12T01:30:07.573Z,9.95
2022-09-12T01:30:34.534Z,9.90
2022-09-12T01:31:03.820Z,9.90
2022-09-12T01:31:30.864Z,9.50
2022-09-12T01:31:52.780Z,9.23
2022-09-12T01:32:18.872Z,9.43
2022-09-12T01:32:55.512Z,9.65
2022-09-12T01:33:37.958Z,9.30
2022-09-12T01:34:19.013Z,9.45
2022-09-12T01:34:58.958Z,9.40
2022-09-12T01:35:25.833Z,9.75
2022-09-12T01:36:05.457Z,9.63
2022-09-12T01:36:34.408Z,8.90
2022-09-12T01:36:51.281Z,9.32
2022-09-12T01:37:11.907Z,9.45
2022-09-12T01:37:34.708Z,8.93
2022-09-12T01:38:05.982Z,9.30
2022-09-12T01:38:26.603Z,9.63
2022-09-12T01:39:02.083Z,9.40
2022-09-12T01:39:23.385Z,9.18
2022-09-12T01:39:38.027Z,9.63
2022-09-12T01:40:03.274Z,9.30
2022-09-12T01:40:29.425Z,9.15
2022-09-12T01:40:53.080Z,9.57
2022-09-12T01:41:38.910Z,9.23
2022-09-12T01:42:01.542Z,9.00
2022-09-12T01:42:25.809Z,9.77
2022-09-12T01:42:41.941Z,9.75
2022-09-12T01:43:12.088Z,9.73
2022-09-12T01:43:32.975Z,9.55
2022-09-12T01:43:49.505Z,8.95
2022-09-12T01:44:04.015Z,9.07
2022-09-12T01:44:34.278Z,9.60
2022-09-12T01:45:20.484Z,9.73
2022-09-12T01:45:46.090Z,9.32
2022-09-12T01:46:15.635Z,8.95
2022-09-12T01:46:39.369Z,10.10
2022-09-12T01:47:02.297Z,9.48
2022-09-12T01:47:24.170Z,9.68
2022-09-12T01:47:45.588Z,9.32
2022-09-12T01:48:26.808Z,9.32
2022-09-12T01:48:57.223Z,9.27
2022-09-12T01:49:24.472Z,9.52
2022-09-12T01:49:46.278Z,9.45
2022-09-12T01:50:10.166Z,9.20
2022-09-12T01:50:30.085Z,9.35
2022-09-12T01:50:52.762Z,9.95
2022-09-12T01:51:15.388Z,9.65
2022-09-12T01:51:39.504Z,8.95
2022-09-12T01:52:00.149Z,8.98
2022-09-12T01:52:24.964Z,9.30
2022-09-12T01:52:58.790Z,9.55
2022-09-12T01:53:19.052Z,8.98
2022-09-12T01:53:38.195Z,9.30
2022-09-12T01:54:01.626Z,9.43
2022-09-12T01:54:21.324Z,9.60
2022-09-12T01:54:40.138Z,9.40
2022-09-12T01:54:56.109Z,9.55
2022-09-12T01:55:13.242Z,9.38
2022-09-12T01:55:40.303Z,8.70
2022-09-12T01:55:56.314Z,9.57
2022-09-12T01:56:22.366Z,9.25
2022-09-12T01:56:38.952Z,8.90
2022-09-12T01:56:55.375Z,8.90
2022-09-12T01:57:32.120Z,8.88
2022-09-12T01:57:50.092Z,9.13
2022-09-12T01:58:07.193Z,8.82
2022-09-12T01:58:26.226Z,9.27
2022-09-12T01:58:50.129Z,9.25
2022-09-12T01:59:18.798Z,9.00
2022-09-12T01:59:35.747Z,9.23
2022-09-12T01:59:51.824Z,9.23
2022-09-12T02:00:09.071Z,8.98
2022-09-12T02:00:21.295Z,8.68
2022-09-12T02:00:37.894Z,8.60
2022-09-12T02:01:04.796Z,8.70
2022-09-12T02:01:33.009Z,8.82
2022-09-12T02:02:02.800Z,9.18
2022-09-12T02:02:25.705Z,8.60
2022-09-12T02:02:43.682Z,8.77
2022-09-12T02:03:10.263Z,9.07
2022-09-12T02:03:30.949Z,8.95
2022-09-12T02:03:51.603Z,9.10
2022-09-12T02:04:11.544Z,9.05
2022-09-12T02:04:32.284Z,8.90
2022-09-12T02:04:54.668Z,9.25
2022-09-12T02:05:14.840Z,9.02
2022-09-12T02:05:50.387Z,9.07
2022-09-12T02:06:17.877Z,9.25
2022-09-12T02:06:36.466Z,9.45
2022-09-12T02:06:57.276Z,9.50
2022-09-12T02:07:18.257Z,9.52
2022-09-12T02:07:41.475Z,9.00
2022-09-12T02:08:15.397Z,8.85
2022-09-12T02:08:35.566Z,9.38
2022-09-12T02:08:58.825Z,9.23
2022-09-12T02:09:21.205Z,8.93
2022-09-12T02:09:40.755Z,9.32
2022-09-12T02:10:03.087Z,8.98
2022-09-12T02:10:20.671Z,8.85
2022-09-12T02:10:41.751Z,9.18
2022-09-12T02:10:57.899Z,9.52
2022-09-12T02:11:11.809Z,9.15
2022-09-12T02:11:23.855Z,9.00
2022-09-12T02:11:40.829Z,8.73
2022-09-12T02:11:57.871Z,8.65
2022-09-12T02:12:14.603Z,9.50
2022-09-12T02:12:35.140Z,9.70
2022-09-12T02:13:02.816Z,9.10
2022-09-12T02:13:42.116Z,9.48
2022-09-12T02:14:20.185Z,9.05
2022-09-12T02:14:36.988Z,9.43
2022-09-12T02:14:53.607Z,9.10
2022-09-12T02:15:08.993Z,9.18
2022-09-12T02:15:26.863Z,9.57
2022-09-12T02:15:48.624Z,9.13
2022-09-12T02:16:10.677Z,9.38
2022-09-12T02:16:36.951Z,9.60
2022-09-12T02:16:55.284Z,8.90
2022-09-12T02:17:12.002Z,9.07
2022-09-12T02:17:26.243Z,9.35
2022-09-12T02:17:44.184Z,9.70
2022-09-12T02:18:01.013Z,9.17
2022-09-12T02:18:18.004Z,9.25
2022-09-12T02:18:33.832Z,9.48
2022-09-12T02:18:52.151Z,9.50
2022-09-12T02:19:10.333Z,9.55
2022-09-12T02:19:33.922Z,9.38
2022-09-12T02:19:51.371Z,8.77
2022-09-12T02:20:17.576Z,9.00
2022-09-12T02:20:48.002Z,9.77
2022-09-12T02:21:04.161Z,9.35
2022-09-12T02:21:22.538Z,8.95
2022-09-12T02:21:38.057Z,9.35
2022-09-12T02:21:54.045Z,9.38
2022-09-12T02:22:07.776Z,9.25
2022-09-12T02:22:22.655Z,9.35
2022-09-12T02:22:37.128Z,9.35
2022-09-12T02:22:50.905Z,9.18
2022-09-12T02:23:08.358Z,9.10
2022-09-12T02:23:26.355Z,9.23
2022-09-12T02:23:43.459Z,9.38
2022-09-12T02:23:59.280Z,9.30
2022-09-12T02:24:14.702Z,9.50
2022-09-12T02:24:33.043Z,9.40
2022-09-12T02:24:51.601Z,9.13
2022-09-12T02:25:07.283Z,9.13
2022-09-12T02:25:21.228Z,9.15
2022-09-12T02:25:36.354Z,9.23
2022-09-12T02:25:52.257Z,9.57
2022-09-12T02:26:12.510Z,9.45
2022-09-12T02:26:31.008Z,9.23
2022-09-12T02:26:59.627Z,9.88
2022-09-12T02:27:16.515Z,9.25
2022-09-12T02:27:44.492Z,9.10
2022-09-12T02:28:06.435Z,8.80
2022-09-12T02:28:27.339Z,9.20
2022-09-12T02:28:42.820Z,9.30
2022-09-12T02:28:54.744Z,9.45
2022-09-12T02:29:06.768Z,9.48
2022-09-12T02:29:18.688Z,9.50
2022-09-12T02:29:30.795Z,9.52
2022-09-12T02:29:47.312Z,9.40
2022-09-12T02:29:59.953Z,9.38
2022-09-12T02:30:14.549Z,9.43
2022-09-12T02:30:31.608Z,9.80
2022-09-12T02:30:56.210Z,9.55
2022-09-12T02:31:24.254Z,9.48
2022-09-12T02:31:46.599Z,9.52
2022-09-12T02:32:08.880Z,9.15
2022-09-12T02:32:42.235Z,9.85
2022-09-12T02:33:01.203Z,9.60
2022-09-12T02:33:27.160Z,9.68
2022-09-12T02:33:49.263Z,9.40
2022-09-12T02:34:14.935Z,9.23
2022-09-12T02:34:35.801Z,9.70
2022-09-12T02:35:01.127Z,9.60
2022-09-12T02:35:39.306Z,9.52
2022-09-12T02:36:37.780Z,9.70
2022-09-12T02:36:50.081Z,10.00
2022-09-12T02:37:39.299Z,10.02
2022-09-12T02:38:11.270Z,9.20
2022-09-12T02:38:44.359Z,9.25
2022-09-12T02:38:56.799Z,9.60
2022-09-12T02:39:09.626Z,9.82
2022-09-12T02:39:21.686Z,9.82
2022-09-12T02:39:33.861Z,9.80
2022-09-12T02:39:46.115Z,9.50
2022-09-12T02:39:59.370Z,9.80
2022-09-12T02:40:11.625Z,9.77
2022-09-12T02:40:23.653Z,9.75
2022-09-12T02:40:36.093Z,9.90
2022-09-12T02:40:48.120Z,10.15
2022-09-12T02:41:00.140Z,9.85
2022-09-12T02:41:15.584Z,9.77
2022-09-12T02:41:27.793Z,9.77
2022-09-12T02:41:39.717Z,9.50
2022-09-12T02:41:52.960Z,9.35
2022-09-12T02:42:05.785Z,9.55
2022-09-12T02:42:17.668Z,10.00
2022-09-12T02:42:29.663Z,10.13
2022-09-12T02:42:41.913Z,9.95
2022-09-12T02:42:53.881Z,9.50
2022-09-12T02:43:07.058Z,9.38
2022-09-12T02:43:18.953Z,9.63
2022-09-12T02:43:31.027Z,9.55
2022-09-12T02:43:43.301Z,9.55
2022-09-12T02:43:55.751Z,9.13
2022-09-12T02:44:07.701Z,9.02
2022-09-12T02:44:20.259Z,9.30
2022-09-12T02:44:34.489Z,9.70
2022-09-12T02:44:46.584Z,10.00
2022-09-12T02:44:58.644Z,9.70
2022-09-12T02:45:12.380Z,9.52
2022-09-12T02:45:24.519Z,9.82
2022-09-12T02:45:37.028Z,9.90
2022-09-12T02:45:49.172Z,9.88
2022-09-12T02:46:01.152Z,9.55
2022-09-12T02:46:20.448Z,9.63
2022-09-12T02:46:40.827Z,9.57
2022-09-12T02:46:56.924Z,9.85
2022-09-12T02:47:14.995Z,9.75
2022-09-12T02:47:45.844Z,9.80
2022-09-12T02:47:57.655Z,9.98
2022-09-12T02:48:14.809Z,9.98
2022-09-12T02:48:31.656Z,9.80
2022-09-12T02:48:43.759Z,9.68
2022-09-12T02:48:56.624Z,9.50
2022-09-12T02:49:09.572Z,9.25
2022-09-12T02:49:22.217Z,9.23
2022-09-12T02:49:34.119Z,9.20
2022-09-12T02:49:47.232Z,9.18
2022-09-12T02:50:00.058Z,9.30
2022-09-12T02:50:12.975Z,9.80
2022-09-12T02:50:25.127Z,9.38
2022-09-12T02:50:37.855Z,9.30
2022-09-12T02:50:49.916Z,9.25
2022-09-12T02:51:02.443Z,9.40
2022-09-12T02:51:14.720Z,9.13
2022-09-12T02:51:27.120Z,9.27
2022-09-12T02:51:40.324Z,9.50
2022-09-12T02:51:52.392Z,9.60
2022-09-12T02:52:04.548Z,10.00
2022-09-12T02:52:16.872Z,9.95
2022-09-12T02:52:29.507Z,9.57
2022-09-12T02:52:42.873Z,9.13
2022-09-12T02:52:59.638Z,9.00
2022-09-12T02:53:11.689Z,9.00
2022-09-12T02:53:23.722Z,8.95
2022-09-12T02:53:36.765Z,9.00
2022-09-12T02:53:49.391Z,9.30
2022-09-12T02:54:03.442Z,9.50
2022-09-12T02:54:17.753Z,9.70
2022-09-12T02:54:30.988Z,9.40
2022-09-12T02:54:43.513Z,9.48
2022-09-12T02:54:57.347Z,9.70
2022-09-12T02:55:12.245Z,9.57
2022-09-12T02:55:24.674Z,9.30
2022-09-12T02:55:39.017Z,9.15
2022-09-12T02:55:51.735Z,9.45
2022-09-12T02:56:07.967Z,9.70
2022-09-12T02:56:28.956Z,9.38
2022-09-12T02:56:43.596Z,9.20
2022-09-12T02:56:55.513Z,9.30
2022-09-12T02:57:22.544Z,9.68
2022-09-12T02:57:35.037Z,9.80
2022-09-12T02:57:46.937Z,9.27
2022-09-12T02:58:02.027Z,9.45
2022-09-12T02:58:20.713Z,9.52
2022-09-12T02:58:33.080Z,9.20
2022-09-12T02:58:45.552Z,9.25
2022-09-12T02:59:08.204Z,9.07
2022-09-12T02:59:22.939Z,9.35
2022-09-12T02:59:34.851Z,9.63
2022-09-12T02:59:48.211Z,10.27
2022-09-12T03:00:01.382Z,10.68
2022-09-12T03:00:14.080Z,10.43
2022-09-12T03:00:27.099Z,9.43
2022-09-12T03:01:06.980Z,9.65
2022-09-12T03:01:36.636Z,9.60
2022-09-12T03:02:03.545Z,9.95
2022-09-12T03:02:41.611Z,9.70
2022-09-12T03:03:02.960Z,9.80
2022-09-12T03:03:33.183Z,9.45
2022-09-12T03:03:59.991Z,9.50
2022-09-12T03:04:17.845Z,10.07
2022-09-12T03:04:57.896Z,9.63
2022-09-12T03:05:18.896Z,9.30
2022-09-12T03:05:40.136Z,9.60
2022-09-12T03:06:00.291Z,9.45
2022-09-12T03:06:48.743Z,9.40
2022-09-12T03:07:03.339Z,9.23
2022-09-12T03:07:42.440Z,9.68
2022-09-12T03:08:21.660Z,9.93
2022-09-12T03:08:39.389Z,9.38
2022-09-12T03:09:00.189Z,9.57
2022-09-12T03:09:30.275Z,9.30
2022-09-12T03:09:54.272Z,9.55
2022-09-12T03:10:08.114Z,9.45
2022-09-12T03:10:51.924Z,9.68
2022-09-12T03:11:11.050Z,9.40
2022-09-12T03:11:47.009Z,9.50
2022-09-12T03:12:19.315Z,9.65
2022-09-12T03:13:00.383Z,9.30
2022-09-12T03:13:30.197Z,9.55
2022-09-12T03:14:16.105Z,9.38
2022-09-12T03:14:35.585Z,9.00
2022-09-12T03:14:53.342Z,9.35
2022-09-12T03:15:17.235Z,9.60
2022-09-12T03:15:37.077Z,9.32
2022-09-12T03:16:28.203Z,8.90
2022-09-12T03:17:22.211Z,9.77
2022-09-12T03:18:06.693Z,9.75
2022-09-12T03:18:42.027Z,9.43
2022-09-12T03:19:06.320Z,8.70
2022-09-12T03:19:42.360Z,9.32
2022-09-12T03:20:09.472Z,9.00
2022-09-12T03:20:33.539Z,10.05
2022-09-12T03:20:58.213Z,9.90
2022-09-12T03:21:10.170Z,9.18
2022-09-12T03:21:40.388Z,9.43
2022-09-12T03:21:54.863Z,9.98
2022-09-12T03:22:13.385Z,9.75
2022-09-12T03:22:33.340Z,9.45
2022-09-12T03:22:59.440Z,9.27
2022-09-12T03:23:36.218Z,9.38
2022-09-12T03:23:54.096Z,9.40
2022-09-12T03:24:21.063Z,9.35
2022-09-12T03:24:38.064Z,9.75
2022-09-12T03:25:17.119Z,9.43
2022-09-12T03:25:53.202Z,9.38
2022-09-12T03:26:18.227Z,9.95
2022-09-12T03:26:40.158Z,10.27
2022-09-12T03:27:00.831Z,9.68
2022-09-12T03:27:45.821Z,10.05
2022-09-12T03:28:08.002Z,9.30
2022-09-12T03:28:22.076Z,9.70
2022-09-12T03:28:35.742Z,9.40
2022-09-12T03:28:49.409Z,9.52
2022-09-12T03:29:03.483Z,9.35
2022-09-12T03:29:16.126Z,9.20
2022-09-12T03:29:28.940Z,9.43
2022-09-12T03:29:43.349Z,9.55
2022-09-12T03:29:56.236Z,9.55
2022-09-12T03:30:10.823Z,9.50
2022-09-12T03:30:28.498Z,9.20
2022-09-12T03:30:42.737Z,9.40
2022-09-12T03:30:56.524Z,9.80
2022-09-12T03:31:14.056Z,10.07
2022-09-12T03:31:25.990Z,9.75
2022-09-12T03:31:39.341Z,9.55
2022-09-12T03:31:54.367Z,9.75
2022-09-12T03:32:07.404Z,9.65
2022-09-12T03:32:19.480Z,9.43
2022-09-12T03:32:41.254Z,9.43
2022-09-12T03:32:55.152Z,9.75
2022-09-12T03:33:14.184Z,10.05
2022-09-12T03:33:26.734Z,9.48
2022-09-12T03:33:38.674Z,9.23
2022-09-12T03:33:50.728Z,9.27
2022-09-12T03:34:02.847Z,9.35
2022-09-12T03:34:14.718Z,9.25
2022-09-12T03:34:27.993Z,9.30
2022-09-12T03:34:43.004Z,9.00
2022-09-12T03:34:54.863Z,8.90
2022-09-12T03:35:07.474Z,9.15
2022-09-12T03:35:23.359Z,9.43
2022-09-12T03:35:35.338Z,9.65
2022-09-12T03:35:48.614Z,9.57
2022-09-12T03:36:00.508Z,9.30
2022-09-12T03:36:22.467Z,9.23
2022-09-12T03:36:34.340Z,9.00
2022-09-12T03:36:46.861Z,8.57
2022-09-12T03:36:59.433Z,9.20
2022-09-12T03:37:11.511Z,9.30
2022-09-12T03:37:23.427Z,9.13
2022-09-12T03:37:35.360Z,9.20
2022-09-12T03:37:48.728Z,9.43
2022-09-12T03:38:00.673Z,9.40
2022-09-12T03:38:13.109Z,9.20
2022-09-12T03:38:25.281Z,9.20
2022-09-12T03:38:37.228Z,9.48
2022-09-12T03:38:49.639Z,9.45
2022-09-12T03:39:01.535Z,9.32
2022-09-12T03:39:13.559Z,9.00
2022-09-12T03:39:26.804Z,9.20
2022-09-12T03:39:39.276Z,9.18
2022-09-12T03:39:51.228Z,9.23
2022-09-12T03:40:05.739Z,9.30
2022-09-12T03:40:18.016Z,9.35
2022-09-12T03:40:29.913Z,9.40
2022-09-12T03:40:42.140Z,9.13
2022-09-12T03:40:54.949Z,8.98
2022-09-12T03:41:07.273Z,9.32
2022-09-12T03:41:19.643Z,9.10
2022-09-12T03:41:31.643Z,8.93
2022-09-12T03:41:43.593Z,8.88
2022-09-12T03:41:56.188Z,9.25
2022-09-12T03:42:08.076Z,9.10
2022-09-12T03:42:20.211Z,9.13
2022-09-12T03:42:32.157Z,9.20
2022-09-12T03:42:44.328Z,9.48
2022-09-12T03:42:56.223Z,9.40
2022-09-12T03:43:09.182Z,9.17
2022-09-12T03:43:21.100Z,9.18
2022-09-12T03:43:32.969Z,9.05
2022-09-12T03:43:45.925Z,9.18
2022-09-12T03:43:57.817Z,9.07
2022-09-12T03:44:09.734Z,9.07
2022-09-12T03:44:22.393Z,9.18
2022-09-12T03:44:34.268Z,9.30
2022-09-12T03:44:46.156Z,9.20
2022-09-12T03:44:58.123Z,9.15
2022-09-12T03:45:11.116Z,9.30
2022-09-12T03:45:23.027Z,9.27
2022-09-12T03:45:36.272Z,9.13
2022-09-12T03:45:53.183Z,9.10
2022-09-12T03:46:05.249Z,9.07
2022-09-12T03:46:17.182Z,9.40
2022-09-12T03:46:29.054Z,9.40
2022-09-12T03:46:40.988Z,9.27
2022-09-12T03:46:53.020Z,8.98
2022-09-12T03:47:09.260Z,9.00
2022-09-12T03:47:23.240Z,9.10
2022-09-12T03:47:35.669Z,8.90
2022-09-12T03:47:47.670Z,8.77
2022-09-12T03:47:59.970Z,8.65
2022-09-12T03:48:12.078Z,8.77
2022-09-12T03:48:23.983Z,8.95
2022-09-12T03:48:36.249Z,9.25
2022-09-12T03:48:48.312Z,9.30
2022-09-12T03:49:00.364Z,8.95
2022-09-12T03:49:12.291Z,8.88
2022-09-12T03:49:24.203Z,8.65
2022-09-12T03:49:36.152Z,8.90
2022-09-12T03:49:48.156Z,9.27
2022-09-12T03:50:00.194Z,9.60
2022-09-12T03:50:12.391Z,9.55
2022-09-12T03:50:24.345Z,9.32
2022-09-12T03:50:36.288Z,9.00